sensor_id;sensor_type;location;lat;lon;timestamp;pressure;altitude;pressure_sealevel;temperature;humidity
7335;BME280;3708;42.632;23.378;2023-01-25T00:01:59;95346.66;;;5.94;57.15
7335;BME280;3708;42.632;23.378;2023-01-25T00:04:26;95356.00;;;6.05;57.64
7335;BME280;3708;42.632;23.378;2023-01-25T00:06:54;95356.50;;;6.17;57.43
7335;BME280;3708;42.632;23.378;2023-01-25T00:09:22;95369.22;;;6.24;57.80
7335;BME280;3708;42.632;23.378;2023-01-25T00:11:50;95367.94;;;6.31;57.28
7335;BME280;3708;42.632;23.378;2023-01-25T00:14:20;95359.34;;;6.31;57.17
7335;BME280;3708;42.632;23.378;2023-01-25T00:16:47;95358.03;;;6.28;56.95
7335;BME280;3708;42.632;23.378;2023-01-25T00:19:14;95355.44;;;6.28;57.05
7335;BME280;3708;42.632;23.378;2023-01-25T00:21:41;95349.19;;;6.29;57.36
7335;BME280;3708;42.632;23.378;2023-01-25T00:24:08;95357.03;;;6.04;57.83
7335;BME280;3708;42.632;23.378;2023-01-25T00:26:36;95348.22;;;5.90;58.65
7335;BME280;3708;42.632;23.378;2023-01-25T00:29:05;95353.41;;;5.70;58.65
7335;BME280;3708;42.632;23.378;2023-01-25T00:31:40;95352.63;;;5.79;58.82
7335;BME280;3708;42.632;23.378;2023-01-25T00:34:37;95345.59;;;6.00;59.10
7335;BME280;3708;42.632;23.378;2023-01-25T00:37:19;95345.13;;;5.93;58.18
7335;BME280;3708;42.632;23.378;2023-01-25T00:39:49;95350.56;;;5.96;58.68
7335;BME280;3708;42.632;23.378;2023-01-25T00:42:17;95352.34;;;5.76;59.16
7335;BME280;3708;42.632;23.378;2023-01-25T00:44:46;95357.84;;;5.94;58.62
7335;BME280;3708;42.632;23.378;2023-01-25T00:47:13;95356.03;;;5.50;59.09
7335;BME280;3708;42.632;23.378;2023-01-25T00:49:41;95348.22;;;5.65;59.36
7335;BME280;3708;42.632;23.378;2023-01-25T00:52:09;95354.97;;;5.71;59.44
7335;BME280;3708;42.632;23.378;2023-01-25T00:54:36;95352.66;;;5.84;59.03
7335;BME280;3708;42.632;23.378;2023-01-25T00:57:03;95356.78;;;5.55;59.40
7335;BME280;3708;42.632;23.378;2023-01-25T00:59:29;95348.75;;;5.62;59.84
7335;BME280;3708;42.632;23.378;2023-01-25T01:01:58;95348.97;;;5.80;59.28
7335;BME280;3708;42.632;23.378;2023-01-25T01:04:24;95347.16;;;5.76;58.69
7335;BME280;3708;42.632;23.378;2023-01-25T01:06:52;95343.31;;;5.88;58.99
7335;BME280;3708;42.632;23.378;2023-01-25T01:09:20;95344.06;;;5.89;58.42
7335;BME280;3708;42.632;23.378;2023-01-25T01:11:47;95346.41;;;5.75;58.95
7335;BME280;3708;42.632;23.378;2023-01-25T01:14:14;95351.56;;;5.80;59.00
7335;BME280;3708;42.632;23.378;2023-01-25T01:16:41;95348.47;;;5.93;58.64
7335;BME280;3708;42.632;23.378;2023-01-25T01:19:09;95350.53;;;5.76;59.08
7335;BME280;3708;42.632;23.378;2023-01-25T01:21:36;95352.91;;;5.93;58.74
7335;BME280;3708;42.632;23.378;2023-01-25T01:24:04;95352.66;;;5.99;58.50
7335;BME280;3708;42.632;23.378;2023-01-25T01:26:31;95353.94;;;6.07;58.07
7335;BME280;3708;42.632;23.378;2023-01-25T01:28:58;95349.50;;;5.97;58.22
7335;BME280;3708;42.632;23.378;2023-01-25T01:31:25;95346.91;;;6.02;57.80
7335;BME280;3708;42.632;23.378;2023-01-25T01:33:53;95338.84;;;6.09;57.32
7335;BME280;3708;42.632;23.378;2023-01-25T01:36:24;95342.47;;;6.18;57.55
7335;BME280;3708;42.632;23.378;2023-01-25T01:38:51;95345.84;;;6.13;56.74
7335;BME280;3708;42.632;23.378;2023-01-25T01:41:19;95337.03;;;6.14;56.63
7335;BME280;3708;42.632;23.378;2023-01-25T01:43:46;95336.75;;;6.11;57.12
7335;BME280;3708;42.632;23.378;2023-01-25T01:46:16;95340.44;;;5.95;57.27
7335;BME280;3708;42.632;23.378;2023-01-25T01:48:48;95326.91;;;5.88;57.75
7335;BME280;3708;42.632;23.378;2023-01-25T01:51:20;95327.16;;;5.71;57.55
7335;BME280;3708;42.632;23.378;2023-01-25T01:53:53;95329.25;;;5.79;58.17
7335;BME280;3708;42.632;23.378;2023-01-25T01:56:27;95330.31;;;5.88;57.91
7335;BME280;3708;42.632;23.378;2023-01-25T01:58:58;95327.94;;;5.72;57.54
7335;BME280;3708;42.632;23.378;2023-01-25T02:01:25;95330.53;;;5.72;57.84
7335;BME280;3708;42.632;23.378;2023-01-25T02:03:52;95324.59;;;5.86;57.40
7335;BME280;3708;42.632;23.378;2023-01-25T02:06:26;95338.31;;;5.72;57.13
7335;BME280;3708;42.632;23.378;2023-01-25T02:08:55;95329.50;;;5.68;57.47
7335;BME280;3708;42.632;23.378;2023-01-25T02:11:23;95329.25;;;5.69;57.40
7335;BME280;3708;42.632;23.378;2023-01-25T02:13:52;95326.63;;;5.59;58.13
7335;BME280;3708;42.632;23.378;2023-01-25T02:16:24;95322.75;;;5.62;58.05
7335;BME280;3708;42.632;23.378;2023-01-25T02:18:53;95324.84;;;5.65;57.63
7335;BME280;3708;42.632;23.378;2023-01-25T02:21:21;95323.25;;;5.64;57.48
7335;BME280;3708;42.632;23.378;2023-01-25T02:23:53;95329.50;;;5.68;57.08
7335;BME280;3708;42.632;23.378;2023-01-25T02:26:24;95334.19;;;5.56;56.91
7335;BME280;3708;42.632;23.378;2023-01-25T02:28:53;95331.59;;;5.71;57.34
7335;BME280;3708;42.632;23.378;2023-01-25T02:31:21;95329.53;;;5.63;57.20
7335;BME280;3708;42.632;23.378;2023-01-25T02:33:48;95327.69;;;5.68;57.67
7335;BME280;3708;42.632;23.378;2023-01-25T02:36:19;95322.72;;;5.72;57.15
7335;BME280;3708;42.632;23.378;2023-01-25T02:38:50;95327.41;;;5.75;57.04
7335;BME280;3708;42.632;23.378;2023-01-25T02:41:24;95328.47;;;5.69;56.97
7335;BME280;3708;42.632;23.378;2023-01-25T02:43:53;95326.91;;;5.68;57.49
7335;BME280;3708;42.632;23.378;2023-01-25T02:46:23;95312.34;;;5.72;57.24
7335;BME280;3708;42.632;23.378;2023-01-25T02:48:52;95319.09;;;5.83;57.49
7335;BME280;3708;42.632;23.378;2023-01-25T02:51:20;95324.31;;;5.78;57.16
7335;BME280;3708;42.632;23.378;2023-01-25T02:53:47;95317.56;;;5.62;57.28
7335;BME280;3708;42.632;23.378;2023-01-25T02:56:14;95319.63;;;5.70;57.24
7335;BME280;3708;42.632;23.378;2023-01-25T02:58:43;95326.66;;;5.54;57.12
7335;BME280;3708;42.632;23.378;2023-01-25T03:01:10;95334.19;;;5.66;57.64
7335;BME280;3708;42.632;23.378;2023-01-25T03:03:38;95327.69;;;5.58;57.44
7335;BME280;3708;42.632;23.378;2023-01-25T03:06:06;95325.88;;;5.64;57.78
7335;BME280;3708;42.632;23.378;2023-01-25T03:08:33;95335.22;;;5.70;57.01
7335;BME280;3708;42.632;23.378;2023-01-25T03:11:02;95337.03;;;5.74;57.39
7335;BME280;3708;42.632;23.378;2023-01-25T03:13:30;95329.50;;;5.78;57.55
7335;BME280;3708;42.632;23.378;2023-01-25T03:16:00;95326.91;;;5.73;57.70
7335;BME280;3708;42.632;23.378;2023-01-25T03:18:27;95325.84;;;5.74;57.34
7335;BME280;3708;42.632;23.378;2023-01-25T03:20:54;95313.91;;;5.73;57.57
7335;BME280;3708;42.632;23.378;2023-01-25T03:23:21;95317.25;;;5.78;56.66
7335;BME280;3708;42.632;23.378;2023-01-25T03:25:48;95310.28;;;5.64;56.83
7335;BME280;3708;42.632;23.378;2023-01-25T03:28:15;95315.19;;;5.70;56.95
7335;BME280;3708;42.632;23.378;2023-01-25T03:30:42;95312.84;;;5.74;57.38
7335;BME280;3708;42.632;23.378;2023-01-25T03:33:10;95321.44;;;5.74;56.87
7335;BME280;3708;42.632;23.378;2023-01-25T03:35:37;95323.25;;;5.59;57.02
7335;BME280;3708;42.632;23.378;2023-01-25T03:38:04;95319.09;;;5.73;57.22
7335;BME280;3708;42.632;23.378;2023-01-25T03:40:30;95320.66;;;5.79;57.32
7335;BME280;3708;42.632;23.378;2023-01-25T03:42:57;95318.31;;;5.72;57.01
7335;BME280;3708;42.632;23.378;2023-01-25T03:45:24;95317.53;;;5.72;56.94
7335;BME280;3708;42.632;23.378;2023-01-25T03:47:51;95315.72;;;5.77;56.54
7335;BME280;3708;42.632;23.378;2023-01-25T03:50:19;95316.00;;;5.71;56.72
7335;BME280;3708;42.632;23.378;2023-01-25T03:52:56;95316.50;;;5.78;56.48
7335;BME280;3708;42.632;23.378;2023-01-25T03:55:32;95319.88;;;5.73;56.28
7335;BME280;3708;42.632;23.378;2023-01-25T03:57:59;95313.13;;;5.62;56.81
7335;BME280;3708;42.632;23.378;2023-01-25T04:00:26;95311.06;;;5.54;56.80
7335;BME280;3708;42.632;23.378;2023-01-25T04:02:53;95308.47;;;5.69;56.44
7335;BME280;3708;42.632;23.378;2023-01-25T04:05:21;95307.41;;;5.65;56.57
7335;BME280;3708;42.632;23.378;2023-01-25T04:07:48;95302.97;;;5.76;56.18
7335;BME280;3708;42.632;23.378;2023-01-25T04:10:15;95307.41;;;5.70;56.25
7335;BME280;3708;42.632;23.378;2023-01-25T04:12:42;95312.38;;;5.52;56.59
7335;BME280;3708;42.632;23.378;2023-01-25T04:15:09;95309.75;;;5.77;56.30
7335;BME280;3708;42.632;23.378;2023-01-25T04:17:36;95306.09;;;5.68;55.95
7335;BME280;3708;42.632;23.378;2023-01-25T04:20:03;95301.97;;;5.67;55.72
7335;BME280;3708;42.632;23.378;2023-01-25T04:22:31;95304.81;;;5.70;56.10
7335;BME280;3708;42.632;23.378;2023-01-25T04:24:58;95303.50;;;5.88;55.98
7335;BME280;3708;42.632;23.378;2023-01-25T04:27:25;95300.94;;;5.48;56.00
7335;BME280;3708;42.632;23.378;2023-01-25T04:29:52;95297.78;;;5.66;56.07
7335;BME280;3708;42.632;23.378;2023-01-25T04:32:19;95308.69;;;5.83;55.50
7335;BME280;3708;42.632;23.378;2023-01-25T04:34:45;95311.81;;;5.85;55.57
7335;BME280;3708;42.632;23.378;2023-01-25T04:37:12;95315.47;;;5.64;55.13
7335;BME280;3708;42.632;23.378;2023-01-25T04:39:40;95315.72;;;5.67;55.77
7335;BME280;3708;42.632;23.378;2023-01-25T04:42:07;95312.34;;;5.41;56.13
7335;BME280;3708;42.632;23.378;2023-01-25T04:44:34;95321.72;;;5.32;55.97
7335;BME280;3708;42.632;23.378;2023-01-25T04:47:01;95317.56;;;5.31;56.31
7335;BME280;3708;42.632;23.378;2023-01-25T04:49:28;95315.72;;;5.27;56.80
7335;BME280;3708;42.632;23.378;2023-01-25T04:51:58;95317.53;;;5.41;56.09
7335;BME280;3708;42.632;23.378;2023-01-25T04:54:24;95317.28;;;5.53;55.48
7335;BME280;3708;42.632;23.378;2023-01-25T04:56:53;95320.41;;;5.60;55.74
7335;BME280;3708;42.632;23.378;2023-01-25T04:59:20;95323.00;;;5.70;55.17
7335;BME280;3708;42.632;23.378;2023-01-25T05:01:47;95319.09;;;5.83;55.61
7335;BME280;3708;42.632;23.378;2023-01-25T05:04:14;95315.47;;;5.94;55.24
7335;BME280;3708;42.632;23.378;2023-01-25T05:06:41;95318.81;;;6.04;54.67
7335;BME280;3708;42.632;23.378;2023-01-25T05:09:08;95320.13;;;5.92;55.07
7335;BME280;3708;42.632;23.378;2023-01-25T05:11:35;95305.28;;;5.97;54.74
7335;BME280;3708;42.632;23.378;2023-01-25T05:14:03;95316.22;;;6.04;54.82
7335;BME280;3708;42.632;23.378;2023-01-25T05:16:30;95309.19;;;6.05;54.32
7335;BME280;3708;42.632;23.378;2023-01-25T05:18:57;95300.13;;;5.72;56.54
7335;BME280;3708;42.632;23.378;2023-01-25T05:21:24;95306.09;;;5.68;55.18
7335;BME280;3708;42.632;23.378;2023-01-25T05:24:09;95302.19;;;5.80;54.65
7335;BME280;3708;42.632;23.378;2023-01-25T05:26:35;95301.44;;;5.65;55.42
7335;BME280;3708;42.632;23.378;2023-01-25T05:29:21;95302.75;;;5.62;55.83
7335;BME280;3708;42.632;23.378;2023-01-25T05:31:48;95311.56;;;5.71;55.31
7335;BME280;3708;42.632;23.378;2023-01-25T05:34:15;95308.72;;;5.63;55.63
7335;BME280;3708;42.632;23.378;2023-01-25T05:36:41;95309.75;;;5.77;54.82
7335;BME280;3708;42.632;23.378;2023-01-25T05:39:08;95310.00;;;5.75;54.86
7335;BME280;3708;42.632;23.378;2023-01-25T05:41:35;95307.66;;;5.69;55.35
7335;BME280;3708;42.632;23.378;2023-01-25T05:44:02;95309.75;;;5.67;55.30
7335;BME280;3708;42.632;23.378;2023-01-25T05:46:30;95309.75;;;5.77;55.26
7335;BME280;3708;42.632;23.378;2023-01-25T05:48:57;95317.03;;;5.80;55.26
7335;BME280;3708;42.632;23.378;2023-01-25T05:51:24;95316.00;;;5.71;55.46
7335;BME280;3708;42.632;23.378;2023-01-25T05:53:53;95319.88;;;5.78;55.64
7335;BME280;3708;42.632;23.378;2023-01-25T05:56:20;95308.69;;;5.73;55.29
7335;BME280;3708;42.632;23.378;2023-01-25T05:58:52;95317.31;;;5.58;55.13
7335;BME280;3708;42.632;23.378;2023-01-25T06:01:18;95314.94;;;5.57;55.03
7335;BME280;3708;42.632;23.378;2023-01-25T06:03:47;95322.47;;;5.63;55.44
7335;BME280;3708;42.632;23.378;2023-01-25T06:06:14;95318.06;;;5.69;55.76
7335;BME280;3708;42.632;23.378;2023-01-25T06:08:41;95316.50;;;5.73;55.62
7335;BME280;3708;42.632;23.378;2023-01-25T06:11:09;95318.06;;;5.79;55.10
7335;BME280;3708;42.632;23.378;2023-01-25T06:13:36;95326.91;;;5.68;54.66
7335;BME280;3708;42.632;23.378;2023-01-25T06:16:04;95328.97;;;5.66;54.41
7335;BME280;3708;42.632;23.378;2023-01-25T06:18:31;95331.84;;;5.39;54.71
7335;BME280;3708;42.632;23.378;2023-01-25T06:24:00;95328.97;;;5.76;54.94
7335;BME280;3708;42.632;23.378;2023-01-25T06:26:27;95332.88;;;5.83;54.77
7335;BME280;3708;42.632;23.378;2023-01-25T06:28:53;95334.16;;;5.76;54.40
7335;BME280;3708;42.632;23.378;2023-01-25T06:31:20;95327.94;;;5.92;58.03
7335;BME280;3708;42.632;23.378;2023-01-25T06:33:48;95331.97;;;6.43;59.84
7335;BME280;3708;42.632;23.378;2023-01-25T06:36:18;95327.16;;;5.91;55.66
7335;BME280;3708;42.632;23.378;2023-01-25T06:38:47;95327.94;;;5.92;55.00
7335;BME280;3708;42.632;23.378;2023-01-25T06:41:15;95320.38;;;6.00;54.77
7335;BME280;3708;42.632;23.378;2023-01-25T06:43:42;95323.81;;;5.86;55.10
7335;BME280;3708;42.632;23.378;2023-01-25T06:46:09;95327.41;;;5.75;54.18
7335;BME280;3708;42.632;23.378;2023-01-25T06:48:37;95331.84;;;5.74;55.10
7335;BME280;3708;42.632;23.378;2023-01-25T06:51:06;95331.34;;;5.62;55.27
7335;BME280;3708;42.632;23.378;2023-01-25T06:53:36;95327.41;;;5.75;55.15
7335;BME280;3708;42.632;23.378;2023-01-25T06:56:08;95329.28;;;5.84;54.73
7335;BME280;3708;42.632;23.378;2023-01-25T06:58:35;95324.31;;;5.73;54.97
7335;BME280;3708;42.632;23.378;2023-01-25T07:01:04;95336.75;;;5.81;54.95
7335;BME280;3708;42.632;23.378;2023-01-25T07:03:31;95327.66;;;5.83;54.40
7335;BME280;3708;42.632;23.378;2023-01-25T07:05:59;95324.56;;;5.71;54.78
7335;BME280;3708;42.632;23.378;2023-01-25T07:08:30;95325.59;;;5.65;55.29
7335;BME280;3708;42.632;23.378;2023-01-25T07:11:00;95321.44;;;5.74;54.96
7335;BME280;3708;42.632;23.378;2023-01-25T07:13:28;95327.41;;;5.75;55.00
7335;BME280;3708;42.632;23.378;2023-01-25T07:15:57;95327.16;;;5.66;55.19
7335;BME280;3708;42.632;23.378;2023-01-25T07:18:25;95327.16;;;5.51;55.41
7335;BME280;3708;42.632;23.378;2023-01-25T07:20:53;95320.66;;;5.23;55.90
7335;BME280;3708;42.632;23.378;2023-01-25T07:23:20;95323.25;;;5.23;56.24
7335;BME280;3708;42.632;23.378;2023-01-25T07:25:48;95330.81;;;5.40;55.75
7335;BME280;3708;42.632;23.378;2023-01-25T07:28:17;95326.13;;;5.52;55.99
7335;BME280;3708;42.632;23.378;2023-01-25T07:31:10;95334.19;;;5.35;56.34
7335;BME280;3708;42.632;23.378;2023-01-25T07:33:43;95328.72;;;5.52;55.91
7335;BME280;3708;42.632;23.378;2023-01-25T07:36:13;95334.44;;;5.44;56.19
7335;BME280;3708;42.632;23.378;2023-01-25T07:38:40;95327.44;;;5.45;56.20
7335;BME280;3708;42.632;23.378;2023-01-25T07:41:07;95332.13;;;5.48;55.96
7335;BME280;3708;42.632;23.378;2023-01-25T07:43:35;95336.00;;;5.45;56.39
7335;BME280;3708;42.632;23.378;2023-01-25T07:46:04;95329.25;;;5.49;57.05
7335;BME280;3708;42.632;23.378;2023-01-25T07:48:32;95336.00;;;5.60;56.17
7335;BME280;3708;42.632;23.378;2023-01-25T07:50:59;95333.66;;;5.49;56.87
7335;BME280;3708;42.632;23.378;2023-01-25T07:53:47;95336.75;;;5.10;57.39
7335;BME280;3708;42.632;23.378;2023-01-25T07:56:14;95335.16;;;4.89;57.97
7335;BME280;3708;42.632;23.378;2023-01-25T07:58:43;95342.38;;;4.72;58.80
7335;BME280;3708;42.632;23.378;2023-01-25T08:01:11;95339.91;;;4.35;60.62
7335;BME280;3708;42.632;23.378;2023-01-25T08:03:39;95341.63;;;4.82;59.77
7335;BME280;3708;42.632;23.378;2023-01-25T08:06:06;95340.91;;;5.06;59.38
7335;BME280;3708;42.632;23.378;2023-01-25T08:08:36;95336.22;;;5.13;58.83
7335;BME280;3708;42.632;23.378;2023-01-25T08:11:07;95334.69;;;5.27;58.95
7335;BME280;3708;42.632;23.378;2023-01-25T08:13:34;95327.16;;;5.51;58.76
7335;BME280;3708;42.632;23.378;2023-01-25T08:16:03;95333.66;;;5.69;58.53
7335;BME280;3708;42.632;23.378;2023-01-25T08:18:30;95332.91;;;5.58;58.37
7335;BME280;3708;42.632;23.378;2023-01-25T08:20:57;95332.88;;;5.73;57.96
7335;BME280;3708;42.632;23.378;2023-01-25T08:23:24;95327.94;;;5.72;57.97
7335;BME280;3708;42.632;23.378;2023-01-25T08:25:51;95330.00;;;5.70;57.68
7335;BME280;3708;42.632;23.378;2023-01-25T08:28:18;95334.16;;;5.81;57.59
7335;BME280;3708;42.632;23.378;2023-01-25T08:30:45;95319.09;;;5.73;57.56
7335;BME280;3708;42.632;23.378;2023-01-25T08:33:13;95327.66;;;5.83;57.22
7335;BME280;3708;42.632;23.378;2023-01-25T08:35:40;95323.53;;;5.87;57.11
7335;BME280;3708;42.632;23.378;2023-01-25T08:38:06;95327.44;;;5.65;58.21
7335;BME280;3708;42.632;23.378;2023-01-25T08:40:33;95327.44;;;5.95;57.86
7335;BME280;3708;42.632;23.378;2023-01-25T08:43:00;95325.34;;;5.87;57.90
7335;BME280;3708;42.632;23.378;2023-01-25T08:45:27;95318.81;;;6.04;57.86
7335;BME280;3708;42.632;23.378;2023-01-25T08:47:58;95307.66;;;5.43;58.62
7335;BME280;3708;42.632;23.378;2023-01-25T08:50:27;95312.06;;;5.78;58.51
7335;BME280;3708;42.632;23.378;2023-01-25T08:52:57;95318.06;;;5.94;58.17
7335;BME280;3708;42.632;23.378;2023-01-25T08:55:24;95320.38;;;5.95;58.03
7335;BME280;3708;42.632;23.378;2023-01-25T08:57:51;95317.00;;;6.00;58.12
7335;BME280;3708;42.632;23.378;2023-01-25T09:00:19;95319.09;;;6.03;57.76
7335;BME280;3708;42.632;23.378;2023-01-25T09:02:45;95319.59;;;6.10;58.05
7335;BME280;3708;42.632;23.378;2023-01-25T09:05:16;95324.53;;;6.06;57.81
7335;BME280;3708;42.632;23.378;2023-01-25T09:07:44;95322.44;;;6.19;57.76
7335;BME280;3708;42.632;23.378;2023-01-25T09:10:11;95319.28;;;6.27;57.82
7335;BME280;3708;42.632;23.378;2023-01-25T09:12:38;95314.41;;;6.10;57.61
7335;BME280;3708;42.632;23.378;2023-01-25T09:15:05;95316.22;;;6.04;58.09
7335;BME280;3708;42.632;23.378;2023-01-25T09:17:32;95309.16;;;6.20;57.92
7335;BME280;3708;42.632;23.378;2023-01-25T09:20:04;95304.47;;;6.17;58.47
7335;BME280;3708;42.632;23.378;2023-01-25T09:22:31;95301.41;;;6.00;58.37
7335;BME280;3708;42.632;23.378;2023-01-25T09:24:59;95305.84;;;5.74;59.23
7335;BME280;3708;42.632;23.378;2023-01-25T09:27:26;95305.56;;;5.76;59.27
7335;BME280;3708;42.632;23.378;2023-01-25T09:29:53;95301.66;;;5.98;58.83
7335;BME280;3708;42.632;23.378;2023-01-25T09:32:20;95298.00;;;6.14;58.74
7335;BME280;3708;42.632;23.378;2023-01-25T09:34:46;95290.97;;;6.10;58.62
7335;BME280;3708;42.632;23.378;2023-01-25T09:37:13;95285.47;;;6.22;58.78
7335;BME280;3708;42.632;23.378;2023-01-25T09:39:40;95286.75;;;6.29;58.62
7335;BME280;3708;42.632;23.378;2023-01-25T09:42:19;95279.75;;;6.20;58.81
7335;BME280;3708;42.632;23.378;2023-01-25T09:45:04;95273.75;;;6.29;58.95
7335;BME280;3708;42.632;23.378;2023-01-25T09:47:41;95262.78;;;6.37;58.32
7335;BME280;3708;42.632;23.378;2023-01-25T09:50:21;95265.38;;;6.42;58.75
7335;BME280;3708;42.632;23.378;2023-01-25T09:55:58;95255.09;;;6.02;58.69
7335;BME280;3708;42.632;23.378;2023-01-25T09:58:32;95256.13;;;6.06;57.96
7335;BME280;3708;42.632;23.378;2023-01-25T10:01:16;95246.16;;;6.28;58.09
7335;BME280;3708;42.632;23.378;2023-01-25T10:04:08;95242.00;;;6.27;58.59
7335;BME280;3708;42.632;23.378;2023-01-25T10:06:38;95248.44;;;6.45;57.41
7335;BME280;3708;42.632;23.378;2023-01-25T10:09:12;95237.41;;;6.63;57.59
7335;BME280;3708;42.632;23.378;2023-01-25T10:11:41;95240.03;;;6.58;56.79
7335;BME280;3708;42.632;23.378;2023-01-25T10:14:14;95229.06;;;6.66;56.30
7335;BME280;3708;42.632;23.378;2023-01-25T10:16:58;95225.28;;;6.82;56.14
7335;BME280;3708;42.632;23.378;2023-01-25T10:19:39;95215.34;;;5.91;57.53
7335;BME280;3708;42.632;23.378;2023-01-25T10:22:13;95221.63;;;6.44;56.99
7335;BME280;3708;42.632;23.378;2023-01-25T10:24:59;95219.75;;;6.50;56.65
7335;BME280;3708;42.632;23.378;2023-01-25T10:27:38;95216.47;;;6.34;55.60
7335;BME280;3708;42.632;23.378;2023-01-25T10:30:20;95215.94;;;6.81;56.24
7335;BME280;3708;42.632;23.378;2023-01-25T10:32:49;95216.28;;;6.64;55.67
7335;BME280;3708;42.632;23.378;2023-01-25T10:35:20;95210.28;;;6.69;55.21
7335;BME280;3708;42.632;23.378;2023-01-25T10:37:49;95202.13;;;6.85;54.58
7335;BME280;3708;42.632;23.378;2023-01-25T10:40:22;95199.22;;;6.87;54.60
7335;BME280;3708;42.632;23.378;2023-01-25T10:42:57;95201.94;;;7.06;54.13
7335;BME280;3708;42.632;23.378;2023-01-25T10:45:33;95206.13;;;7.07;53.58
7335;BME280;3708;42.632;23.378;2023-01-25T10:48:02;95192.53;;;7.10;54.04
7335;BME280;3708;42.632;23.378;2023-01-25T10:50:46;95190.09;;;7.18;53.65
7335;BME280;3708;42.632;23.378;2023-01-25T10:53:22;95181.72;;;7.26;52.93
7335;BME280;3708;42.632;23.378;2023-01-25T10:55:56;95166.47;;;7.38;52.48
7335;BME280;3708;42.632;23.378;2023-01-25T10:58:29;95167.09;;;7.30;52.55
7335;BME280;3708;42.632;23.378;2023-01-25T11:00:58;95166.31;;;7.30;52.86
7335;BME280;3708;42.632;23.378;2023-01-25T11:03:33;95157.09;;;7.14;52.78
7335;BME280;3708;42.632;23.378;2023-01-25T11:06:01;95159.16;;;7.12;52.28
7335;BME280;3708;42.632;23.378;2023-01-25T11:08:33;95157.44;;;7.31;52.12
7335;BME280;3708;42.632;23.378;2023-01-25T11:11:14;95153.44;;;7.38;52.44
7335;BME280;3708;42.632;23.378;2023-01-25T11:13:47;95153.66;;;7.42;51.89
7335;BME280;3708;42.632;23.378;2023-01-25T11:16:29;95162.88;;;7.34;51.55
7335;BME280;3708;42.632;23.378;2023-01-25T11:18:58;95160.19;;;7.16;52.06
7335;BME280;3708;42.632;23.378;2023-01-25T11:21:28;95148.56;;;7.32;52.17
7335;BME280;3708;42.632;23.378;2023-01-25T11:24:09;95155.69;;;7.50;51.33
7335;BME280;3708;42.632;23.378;2023-01-25T11:26:41;95148.25;;;7.62;50.94
7335;BME280;3708;42.632;23.378;2023-01-25T11:29:13;95151.31;;;7.69;49.99
7335;BME280;3708;42.632;23.378;2023-01-25T11:31:47;95146.44;;;7.34;50.81
7335;BME280;3708;42.632;23.378;2023-01-25T11:34:16;95140.34;;;7.20;51.69
7335;BME280;3708;42.632;23.378;2023-01-25T11:36:56;95135.47;;;7.37;51.62
7335;BME280;3708;42.632;23.378;2023-01-25T11:39:37;95134.81;;;7.50;50.76
7335;BME280;3708;42.632;23.378;2023-01-25T11:42:19;95127.72;;;7.55;51.04
7335;BME280;3708;42.632;23.378;2023-01-25T11:45:15;95125.50;;;7.67;50.46
7335;BME280;3708;42.632;23.378;2023-01-25T11:48:02;95116.13;;;7.43;51.41
7335;BME280;3708;42.632;23.378;2023-01-25T11:50:35;95101.44;;;7.52;50.83
7335;BME280;3708;42.632;23.378;2023-01-25T11:56:08;95098.50;;;7.35;50.84
7335;BME280;3708;42.632;23.378;2023-01-25T11:58:51;95098.53;;;7.30;51.36
7335;BME280;3708;42.632;23.378;2023-01-25T12:01:26;95094.72;;;7.46;50.86
7335;BME280;3708;42.632;23.378;2023-01-25T12:04:38;95093.22;;;7.40;50.64
7335;BME280;3708;42.632;23.378;2023-01-25T12:07:12;95091.19;;;7.37;50.67
7335;BME280;3708;42.632;23.378;2023-01-25T12:09:58;95089.69;;;7.31;50.79
7335;BME280;3708;42.632;23.378;2023-01-25T12:12:37;95080.97;;;7.40;50.36
7335;BME280;3708;42.632;23.378;2023-01-25T12:15:23;95084.28;;;6.99;50.93
7335;BME280;3708;42.632;23.378;2023-01-25T12:18:10;95086.47;;;7.39;50.94
7335;BME280;3708;42.632;23.378;2023-01-25T12:21:02;95086.78;;;7.56;50.44
7335;BME280;3708;42.632;23.378;2023-01-25T12:23:42;95081.69;;;7.22;51.36
7335;BME280;3708;42.632;23.378;2023-01-25T12:26:19;95077.34;;;7.13;50.89
7335;BME280;3708;42.632;23.378;2023-01-25T12:28:50;95078.06;;;7.18;50.61
7335;BME280;3708;42.632;23.378;2023-01-25T12:31:22;95074.59;;;7.28;50.48
7335;BME280;3708;42.632;23.378;2023-01-25T12:33:55;95074.91;;;6.98;50.89
7335;BME280;3708;42.632;23.378;2023-01-25T12:36:27;95065.28;;;6.98;51.25
7335;BME280;3708;42.632;23.378;2023-01-25T12:38:59;95071.81;;;6.96;50.99
7335;BME280;3708;42.632;23.378;2023-01-25T12:41:37;95072.25;;;7.03;51.60
7335;BME280;3708;42.632;23.378;2023-01-25T12:44:17;95067.19;;;6.87;51.67
7335;BME280;3708;42.632;23.378;2023-01-25T12:46:54;95071.34;;;6.60;52.70
7335;BME280;3708;42.632;23.378;2023-01-25T12:49:29;95051.94;;;6.76;51.94
7335;BME280;3708;42.632;23.378;2023-01-25T12:52:02;95057.25;;;6.66;52.31
7335;BME280;3708;42.632;23.378;2023-01-25T12:54:33;95066.00;;;6.41;52.58
7335;BME280;3708;42.632;23.378;2023-01-25T12:57:14;95065.16;;;6.17;53.25
7335;BME280;3708;42.632;23.378;2023-01-25T12:59:49;95055.59;;;6.41;52.52
7335;BME280;3708;42.632;23.378;2023-01-25T13:02:35;95053.16;;;6.55;52.88
7335;BME280;3708;42.632;23.378;2023-01-25T13:05:19;95048.97;;;6.87;52.38
7335;BME280;3708;42.632;23.378;2023-01-25T13:07:55;95041.88;;;6.93;51.77
7335;BME280;3708;42.632;23.378;2023-01-25T13:10:32;95040.06;;;6.93;51.33
7335;BME280;3708;42.632;23.378;2023-01-25T13:13:19;95041.53;;;7.00;51.51
7335;BME280;3708;42.632;23.378;2023-01-25T13:15:47;95034.66;;;6.85;51.69
7335;BME280;3708;42.632;23.378;2023-01-25T13:18:37;95032.22;;;6.93;52.02
7335;BME280;3708;42.632;23.378;2023-01-25T13:21:09;95034.25;;;6.73;52.34
7335;BME280;3708;42.632;23.378;2023-01-25T13:23:43;95026.97;;;6.75;52.07
7335;BME280;3708;42.632;23.378;2023-01-25T13:26:37;95032.38;;;6.78;52.19
7335;BME280;3708;42.632;23.378;2023-01-25T13:35:27;95034.03;;;6.69;51.93
7335;BME280;3708;42.632;23.378;2023-01-25T13:38:04;95041.09;;;6.92;51.10
7335;BME280;3708;42.632;23.378;2023-01-25T13:40:36;95034.09;;;6.88;51.85
7335;BME280;3708;42.632;23.378;2023-01-25T13:43:04;95040.50;;;7.01;51.68
7335;BME280;3708;42.632;23.378;2023-01-25T13:45:34;95040.78;;;6.70;52.25
7335;BME280;3708;42.632;23.378;2023-01-25T13:48:11;95045.09;;;6.51;52.04
7335;BME280;3708;42.632;23.378;2023-01-25T13:50:44;95042.19;;;6.86;52.22
7335;BME280;3708;42.632;23.378;2023-01-25T13:53:22;95041.38;;;7.15;51.24
7335;BME280;3708;42.632;23.378;2023-01-25T13:55:55;95041.53;;;7.23;50.84
7335;BME280;3708;42.632;23.378;2023-01-25T13:58:24;95048.03;;;7.02;50.90